createdAt,value
2022-11-07T00:00:02.904Z,99196.08
2022-11-07T00:05:30.024Z,99191.49
2022-11-07T00:10:37.168Z,99196.73
2022-11-07T00:15:42.656Z,99192.45
2022-11-07T00:20:49.649Z,99197.52
2022-11-07T00:26:02.167Z,99198.43
2022-11-07T00:31:10.891Z,99192.34
2022-11-07T00:36:22.823Z,99185.34
2022-11-07T00:41:30.182Z,99185.67
2022-11-07T00:46:37.842Z,99182.21
2022-11-07T00:51:45.250Z,99175.30
2022-11-07T00:56:53.242Z,99168.05
2022-11-07T01:02:01.185Z,99169.30
2022-11-07T01:07:09.117Z,99170.27
2022-11-07T01:12:17.031Z,99163.66
2022-11-07T01:17:24.737Z,99157.90
2022-11-07T01:22:31.753Z,99152.89
2022-11-07T01:27:37.295Z,99145.23
2022-11-07T01:32:44.498Z,99146.29
2022-11-07T01:37:51.889Z,99145.46
2022-11-07T01:43:00.213Z,99147.02
2022-11-07T01:48:08.142Z,99149.48
2022-11-07T01:53:15.865Z,99134.07
2022-11-07T01:58:23.274Z,99128.15
2022-11-07T02:03:30.696Z,99121.79
2022-11-07T02:08:40.368Z,99116.61
2022-11-07T02:13:47.755Z,99115.05
2022-11-07T02:18:54.834Z,99113.04
2022-11-07T02:24:05.658Z,99112.67
2022-11-07T02:29:14.122Z,99105.99
2022-11-07T02:34:21.389Z,99099.21
2022-11-07T02:39:29.260Z,99097.58
2022-11-07T02:44:36.763Z,99102.60
2022-11-07T02:49:43.753Z,99105.02
2022-11-07T02:54:49.404Z,99099.88
2022-11-07T02:59:57.931Z,99090.89
2022-11-07T03:05:05.633Z,99084.88
2022-11-07T03:10:14.499Z,99078.38
2022-11-07T03:15:22.250Z,99080.19
2022-11-07T03:20:29.569Z,99085.30
2022-11-07T03:25:36.737Z,99089.83
2022-11-07T03:30:43.749Z,99084.23
2022-11-07T03:35:51.203Z,99088.39
2022-11-07T03:40:58.809Z,99096.30
2022-11-07T03:46:06.637Z,99093.21
2022-11-07T03:51:13.826Z,99096.14
2022-11-07T03:56:21.187Z,99088.63
2022-11-07T04:01:26.957Z,99079.93
2022-11-07T04:06:34.305Z,99082.48
2022-11-07T04:11:57.711Z,99085.82
2022-11-07T04:17:20.550Z,99086.29
2022-11-07T04:22:28.781Z,99081.70
2022-11-07T04:27:47.101Z,99078.48
2022-11-07T04:32:57.216Z,99073.88
2022-11-07T04:38:05.132Z,99067.00
2022-11-07T04:43:13.150Z,99064.20
2022-11-07T04:48:21.158Z,99059.25
2022-11-07T04:53:28.227Z,99055.85
2022-11-07T04:58:34.123Z,99053.73
2022-11-07T05:03:42.262Z,99052.95
2022-11-07T05:08:49.760Z,99057.70
2022-11-07T05:13:57.945Z,99055.31
2022-11-07T05:19:05.179Z,99051.52
2022-11-07T05:24:12.940Z,99042.88
2022-11-07T05:29:20.404Z,99045.76
2022-11-07T05:34:28.524Z,99051.80
2022-11-07T05:39:35.973Z,99057.13
2022-11-07T05:44:44.524Z,99066.84
2022-11-07T05:49:52.109Z,99070.19
2022-11-07T05:54:59.162Z,99071.70
2022-11-07T06:00:08.903Z,99081.30
2022-11-07T06:05:19.359Z,99091.66
2022-11-07T06:10:30.613Z,99098.13
2022-11-07T06:15:39.521Z,99107.87
2022-11-07T06:20:47.438Z,99108.44
2022-11-07T06:25:55.224Z,99110.16
2022-11-07T06:31:05.223Z,99112.86
2022-11-07T06:36:14.580Z,99118.08
2022-11-07T06:41:22.453Z,99130.60
2022-11-07T06:46:29.599Z,99135.42
2022-11-07T06:51:36.994Z,99132.54
2022-11-07T06:56:44.292Z,99140.92
2022-11-07T07:01:52.416Z,99141.29
2022-11-07T07:06:59.605Z,99141.86
2022-11-07T07:12:07.752Z,99151.20
2022-11-07T07:17:15.307Z,99150.67
2022-11-07T07:22:22.676Z,99151.67
2022-11-07T07:27:30.559Z,99152.39
2022-11-07T07:32:40.164Z,99151.04
2022-11-07T07:37:50.095Z,99147.33
2022-11-07T07:42:57.675Z,99143.80
2022-11-07T07:48:05.405Z,99133.63
2022-11-07T07:53:12.996Z,99128.33
2022-11-07T07:58:20.087Z,99131.63
2022-11-07T08:03:39.696Z,99133.65
2022-11-07T08:08:56.950Z,99135.76
2022-11-07T08:14:04.115Z,99137.09
2022-11-07T08:19:11.347Z,99139.74
2022-11-07T08:24:18.438Z,99135.66
2022-11-07T08:29:25.734Z,99135.23
2022-11-07T08:34:33.226Z,99140.39
2022-11-07T08:39:40.188Z,99143.12
2022-11-07T08:44:45.838Z,99152.53
2022-11-07T08:49:53.621Z,99151.48
2022-11-07T09:00:44.983Z,99156.40
2022-11-07T09:05:52.976Z,99158.63
2022-11-07T09:11:04.413Z,99162.61
2022-11-07T09:16:22.499Z,99164.36
2022-11-07T09:21:32.478Z,99168.99
2022-11-07T09:26:39.551Z,99174.36
2022-11-07T09:31:47.041Z,99180.16
2022-11-07T09:36:54.037Z,99186.42
2022-11-07T09:42:03.520Z,99189.21
2022-11-07T09:47:22.734Z,99188.55
2022-11-07T09:52:38.770Z,99185.96
2022-11-07T09:57:46.703Z,99187.45
2022-11-07T10:02:58.001Z,99195.41
2022-11-07T10:08:11.693Z,99192.67
2022-11-07T10:13:37.528Z,99185.27
2022-11-07T10:18:55.148Z,99186.77
2022-11-07T10:24:18.157Z,99181.78
2022-11-07T10:29:29.173Z,99185.03
2022-11-07T10:34:42.946Z,99184.39
2022-11-07T10:39:50.059Z,99183.11
2022-11-07T10:44:59.883Z,99184.59
2022-11-07T10:50:20.854Z,99187.47
2022-11-07T10:55:28.749Z,99190.52
2022-11-07T11:00:39.623Z,99199.27
2022-11-07T11:05:47.882Z,99200.17
2022-11-07T11:10:55.120Z,99198.75
2022-11-07T11:16:21.452Z,99201.05
2022-11-07T11:21:39.675Z,99196.04
2022-11-07T11:26:49.796Z,99198.36
2022-11-07T11:31:59.946Z,99197.64
2022-11-07T11:37:12.294Z,99190.92
2022-11-07T11:42:27.939Z,99188.23
2022-11-07T11:47:39.021Z,99181.41
2022-11-07T11:52:47.069Z,99187.48
2022-11-07T11:58:02.757Z,99179.48
2022-11-07T12:03:27.760Z,99184.91
2022-11-07T12:08:51.727Z,99184.77
2022-11-07T12:14:09.158Z,99195.73
2022-11-07T12:19:27.016Z,99192.45
2022-11-07T12:24:46.068Z,99191.25
2022-11-07T12:30:07.656Z,99187.02
2022-11-07T12:35:30.780Z,99193.70
2022-11-07T12:40:47.647Z,99197.98
2022-11-07T12:46:06.459Z,99195.02
2022-11-07T12:51:26.089Z,99192.30
2022-11-07T12:56:37.472Z,99198.21
2022-11-07T13:01:50.976Z,99202.46
2022-11-07T13:07:05.934Z,99206.83
2022-11-07T13:12:24.429Z,99206.39
2022-11-07T13:17:43.788Z,99208.48
2022-11-07T13:22:52.222Z,99205.61
2022-11-07T13:28:21.132Z,99206.78
2022-11-07T13:33:33.651Z,99211.73
2022-11-07T13:38:49.838Z,99210.33
2022-11-07T13:44:01.120Z,99211.84
2022-11-07T13:49:13.275Z,99214.06
2022-11-07T13:54:27.695Z,99218.34
2022-11-07T13:59:45.089Z,99227.13
2022-11-07T14:10:30.753Z,99239.10
2022-11-07T14:15:44.948Z,99243.09
2022-11-07T14:20:54.712Z,99248.88
2022-11-07T14:26:04.531Z,99251.89
2022-11-07T14:31:20.696Z,99251.70
2022-11-07T14:36:29.451Z,99263.03
2022-11-07T14:41:40.689Z,99264.74
2022-11-07T14:46:48.780Z,99260.47
2022-11-07T14:51:56.924Z,99263.85
2022-11-07T14:57:05.837Z,99264.61
2022-11-07T15:02:33.262Z,99271.25
2022-11-07T15:07:49.832Z,99272.28
2022-11-07T15:13:00.748Z,99279.62
2022-11-07T15:18:25.537Z,99277.73
2022-11-07T15:23:36.526Z,99275.98
2022-11-07T15:28:51.575Z,99275.32
2022-11-07T15:34:00.232Z,99272.74
2022-11-07T15:39:07.889Z,99276.11
2022-11-07T15:44:18.757Z,99279.09
2022-11-07T15:49:26.870Z,99285.64
2022-11-07T15:54:34.165Z,99292.95
2022-11-07T15:59:44.846Z,99292.14
2022-11-07T16:04:51.979Z,99294.34
2022-11-07T16:09:59.275Z,99298.89
2022-11-07T16:15:08.047Z,99301.38
2022-11-07T16:20:19.127Z,99302.77
2022-11-07T16:25:27.364Z,99306.24
2022-11-07T16:30:37.386Z,99310.83
2022-11-07T16:35:44.486Z,99317.00
2022-11-07T16:40:51.971Z,99323.67
2022-11-07T16:45:59.627Z,99324.30
2022-11-07T16:51:07.347Z,99324.58
2022-11-07T16:56:33.688Z,99327.00
2022-11-07T17:01:40.978Z,99327.41
2022-11-07T17:06:49.203Z,99326.68
2022-11-07T17:11:56.213Z,99332.79
2022-11-07T17:17:03.225Z,99331.32
2022-11-07T17:22:10.487Z,99341.72
2022-11-07T17:27:24.209Z,99343.27
2022-11-07T17:32:31.457Z,99345.01
2022-11-07T17:37:39.182Z,99349.94
2022-11-07T17:42:46.898Z,99344.02
2022-11-07T17:47:54.415Z,99353.11
2022-11-07T17:53:01.533Z,99358.27
2022-11-07T17:58:08.655Z,99358.57
2022-11-07T18:03:15.769Z,99356.08
2022-11-07T18:08:46.019Z,99345.95
2022-11-07T18:13:51.258Z,99345.44
2022-11-07T18:19:00.198Z,99348.73
2022-11-07T18:24:08.586Z,99344.59
2022-11-07T18:29:16.308Z,99347.98
2022-11-07T18:34:23.430Z,99346.31
2022-11-07T18:39:31.345Z,99343.36
2022-11-07T18:44:38.743Z,99345.27
2022-11-07T18:49:45.923Z,99345.42
2022-11-07T18:54:53.005Z,99345.52
2022-11-07T18:59:58.554Z,99348.02
2022-11-07T19:05:07.506Z,99356.88
2022-11-07T19:10:16.091Z,99356.70
2022-11-07T19:15:27.394Z,99359.71
2022-11-07T19:20:34.494Z,99356.59
2022-11-07T19:25:41.152Z,99371.52
2022-11-07T19:30:48.297Z,99380.50
2022-11-07T19:36:01.574Z,99372.50
2022-11-07T19:41:11.457Z,99364.88
2022-11-07T19:46:21.193Z,99367.98
2022-11-07T19:51:28.420Z,99364.58
2022-11-07T19:56:35.637Z,99364.82
2022-11-07T20:01:41.388Z,99366.27
2022-11-07T20:06:50.509Z,99372.27
2022-11-07T20:11:59.370Z,99379.48
2022-11-07T20:17:07.368Z,99386.46
2022-11-07T20:22:14.478Z,99387.56
2022-11-07T20:27:21.472Z,99379.79
2022-11-07T20:32:28.689Z,99372.61
2022-11-07T20:37:34.720Z,99382.20
2022-11-07T20:42:41.859Z,99385.30
2022-11-07T20:47:47.958Z,99392.63
2022-11-07T20:52:59.111Z,99401.34
2022-11-07T20:58:07.163Z,99397.33
2022-11-07T21:03:16.711Z,99396.20
2022-11-07T21:08:26.876Z,99400.29
2022-11-07T21:13:34.010Z,99405.80
2022-11-07T21:18:39.869Z,99410.95
2022-11-07T21:23:47.787Z,99410.44
2022-11-07T21:28:55.513Z,99406.80
2022-11-07T21:34:02.597Z,99407.55
2022-11-07T21:39:11.290Z,99407.78
2022-11-07T21:44:18.510Z,99410.01
2022-11-07T21:49:26.069Z,99413.77
2022-11-07T21:54:36.764Z,99413.82
2022-11-07T21:59:46.542Z,99419.90
2022-11-07T22:04:54.431Z,99414.48
2022-11-07T22:10:02.004Z,99412.27
2022-11-07T22:15:11.714Z,99410.31
2022-11-07T22:20:19.314Z,99419.33
2022-11-07T22:25:27.011Z,99425.34
2022-11-07T22:30:35.157Z,99425.27
2022-11-07T22:35:43.940Z,99425.73
2022-11-07T22:40:51.547Z,99424.14
2022-11-07T22:46:05.978Z,99421.27
2022-11-07T22:51:15.654Z,99422.52
2022-11-07T22:56:24.036Z,99429.73
2022-11-07T23:01:34.950Z,99432.52
2022-11-07T23:06:42.231Z,99425.99
2022-11-07T23:11:48.874Z,99420.48
2022-11-07T23:16:57.400Z,99415.20
2022-11-07T23:22:04.509Z,99413.02
2022-11-07T23:27:10.207Z,99414.66
2022-11-07T23:32:18.014Z,99416.20
2022-11-07T23:37:25.479Z,99417.71
2022-11-07T23:42:32.874Z,99419.30
2022-11-07T23:47:58.133Z,99417.02
2022-11-07T23:53:25.531Z,99413.56
2022-11-07T23:58:50.611Z,99414.73
